createdAt,value
2018-07-25T00:02:24.795Z,75.40
2018-07-25T00:04:55.763Z,74.80
2018-07-25T00:07:29.955Z,75.80
2018-07-25T00:12:30.912Z,75.40
2018-07-25T00:15:03.172Z,74.90
2018-07-25T00:17:33.166Z,73.90
2018-07-25T00:20:04.511Z,75.40
2018-07-25T00:22:35.691Z,74.50
2018-07-25T00:25:06.215Z,73.70
2018-07-25T00:27:34.773Z,74.70
2018-07-25T00:30:03.429Z,73.40
2018-07-25T00:32:32.147Z,73.00
2018-07-25T00:35:00.818Z,73.90
2018-07-25T00:37:33.996Z,73.50
2018-07-25T00:40:05.387Z,73.20
2018-07-25T00:42:36.398Z,73.00
2018-07-25T00:45:07.813Z,73.20
2018-07-25T00:47:38.224Z,72.40
2018-07-25T00:50:08.810Z,73.50
2018-07-25T00:52:39.852Z,73.90
2018-07-25T00:55:09.890Z,73.90
2018-07-25T00:57:38.690Z,73.90
2018-07-25T01:02:35.499Z,74.30
2018-07-25T01:05:04.672Z,73.70
2018-07-25T01:07:33.198Z,73.90
2018-07-25T01:12:32.678Z,73.90
2018-07-25T01:15:01.164Z,73.70
2018-07-25T01:17:29.625Z,73.70
2018-07-25T01:19:58.449Z,74.00
2018-07-25T01:22:30.524Z,74.10
2018-07-25T01:25:04.034Z,74.50
2018-07-25T01:27:32.602Z,74.30
2018-07-25T01:30:03.297Z,74.50
2018-07-25T01:32:33.489Z,75.10
2018-07-25T01:35:03.349Z,74.80
2018-07-25T01:37:33.243Z,74.30
2018-07-25T01:40:03.681Z,73.80
2018-07-25T01:42:35.439Z,73.80
2018-07-25T01:45:07.295Z,73.70
2018-07-25T01:47:38.408Z,73.90
2018-07-25T01:50:13.288Z,73.80
2018-07-25T01:52:43.472Z,74.50
2018-07-25T01:55:17.353Z,74.10
2018-07-25T01:57:48.625Z,74.50
2018-07-25T02:00:18.281Z,74.10
2018-07-25T02:02:54.311Z,74.60
2018-07-25T02:05:23.002Z,74.60
2018-07-25T02:07:59.506Z,75.00
2018-07-25T02:10:28.160Z,75.20
2018-07-25T02:12:58.117Z,75.10
2018-07-25T02:15:27.329Z,74.50
2018-07-25T02:17:59.925Z,74.50
2018-07-25T02:20:28.457Z,75.00
2018-07-25T02:22:58.932Z,74.90
2018-07-25T02:25:28.774Z,75.10
2018-07-25T02:28:01.082Z,74.60
2018-07-25T02:30:31.898Z,74.10
2018-07-25T02:33:02.346Z,74.00
2018-07-25T02:35:31.753Z,74.40
2018-07-25T02:38:01.093Z,74.90
2018-07-25T02:40:30.308Z,75.00
2018-07-25T02:42:59.841Z,75.50
2018-07-25T02:45:32.913Z,75.70
2018-07-25T02:48:02.524Z,76.10
2018-07-25T02:50:32.238Z,76.00
2018-07-25T02:53:01.644Z,75.80
2018-07-25T02:55:30.621Z,76.20
2018-07-25T02:58:01.011Z,76.20
2018-07-25T03:00:30.491Z,76.10
2018-07-25T03:03:01.700Z,76.30
2018-07-25T03:05:31.103Z,76.10
2018-07-25T03:08:01.535Z,76.40
2018-07-25T03:10:32.270Z,76.50
2018-07-25T03:13:06.748Z,76.90
2018-07-25T03:15:37.930Z,77.00
2018-07-25T03:18:09.021Z,77.30
2018-07-25T03:20:39.198Z,77.20
2018-07-25T03:23:13.723Z,77.30
2018-07-25T03:25:44.853Z,77.00
2018-07-25T03:28:15.397Z,77.20
2018-07-25T03:33:27.321Z,77.90
2018-07-25T03:36:00.365Z,77.70
2018-07-25T03:38:31.539Z,78.10
2018-07-25T03:41:03.883Z,78.10
2018-07-25T03:43:38.488Z,78.30
2018-07-25T03:46:09.686Z,78.60
2018-07-25T03:48:41.034Z,78.20
2018-07-25T03:51:13.319Z,77.60
2018-07-25T03:53:42.274Z,77.20
2018-07-25T03:56:10.744Z,77.50
2018-07-25T03:58:39.164Z,77.10
2018-07-25T04:01:07.690Z,77.10
2018-07-25T04:03:36.077Z,77.10
2018-07-25T04:06:04.816Z,77.60
2018-07-25T04:08:33.593Z,77.90
2018-07-25T04:11:02.551Z,78.00
2018-07-25T04:13:31.186Z,78.10
2018-07-25T04:15:59.719Z,78.30
2018-07-25T04:18:28.420Z,78.30
2018-07-25T04:20:59.860Z,78.10
2018-07-25T04:23:29.468Z,77.80
2018-07-25T04:25:57.808Z,77.30
2018-07-25T04:28:26.192Z,77.80
2018-07-25T04:30:55.147Z,77.70
2018-07-25T04:33:23.614Z,77.80
2018-07-25T04:35:51.996Z,77.80
2018-07-25T04:38:20.703Z,77.60
2018-07-25T04:40:49.191Z,77.90
2018-07-25T04:43:17.643Z,77.90
2018-07-25T04:48:14.153Z,77.70
2018-07-25T04:50:42.719Z,77.80
2018-07-25T04:53:11.151Z,77.60
2018-07-25T04:55:39.606Z,77.70
2018-07-25T04:58:07.977Z,77.00
2018-07-25T05:00:36.622Z,76.80
2018-07-25T05:03:05.055Z,76.50
2018-07-25T05:05:33.691Z,75.60
2018-07-25T05:08:03.405Z,76.00
2018-07-25T05:10:31.842Z,75.80
2018-07-25T05:13:00.707Z,76.10
2018-07-25T05:15:29.149Z,75.70
2018-07-25T05:17:57.670Z,75.90
2018-07-25T05:20:26.190Z,75.30
2018-07-25T05:22:54.837Z,75.10
2018-07-25T05:25:23.275Z,74.40
2018-07-25T05:27:51.885Z,74.60
2018-07-25T05:30:33.763Z,74.50
2018-07-25T05:33:24.971Z,74.00
2018-07-25T05:35:53.418Z,74.20
2018-07-25T05:38:21.760Z,74.00
2018-07-25T05:40:50.169Z,74.20
2018-07-25T05:43:18.683Z,73.50
2018-07-25T05:45:47.070Z,73.10
2018-07-25T05:48:15.509Z,72.80
2018-07-25T05:50:44.817Z,72.60
2018-07-25T05:53:13.367Z,71.50
2018-07-25T05:55:41.787Z,71.80
2018-07-25T05:58:10.773Z,71.80
2018-07-25T06:00:42.813Z,71.00
2018-07-25T06:03:11.242Z,71.70
2018-07-25T06:05:44.980Z,70.90
2018-07-25T06:08:13.574Z,70.40
2018-07-25T06:11:05.277Z,70.00
2018-07-25T06:13:37.561Z,70.00
2018-07-25T06:16:09.356Z,69.70
2018-07-25T06:18:39.000Z,69.50
2018-07-25T06:21:07.899Z,69.50
2018-07-25T06:23:37.340Z,69.20
2018-07-25T06:26:06.621Z,68.50
2018-07-25T06:28:35.161Z,68.60
2018-07-25T06:31:04.437Z,68.20
2018-07-25T06:33:38.614Z,68.00
2018-07-25T06:36:07.204Z,67.50
2018-07-25T06:38:36.272Z,67.20
2018-07-25T06:41:04.675Z,66.80
2018-07-25T06:43:33.712Z,66.30
2018-07-25T06:46:02.586Z,66.50
2018-07-25T06:48:37.182Z,65.50
2018-07-25T06:51:06.440Z,64.90
2018-07-25T06:53:35.096Z,65.00
2018-07-25T06:56:04.086Z,65.10
2018-07-25T06:58:33.728Z,65.10
2018-07-25T07:01:02.873Z,65.10
2018-07-25T07:03:31.304Z,64.20
2018-07-25T07:06:00.853Z,63.40
2018-07-25T07:08:29.499Z,64.80
2018-07-25T07:10:58.260Z,62.60
2018-07-25T07:13:27.237Z,61.80
2018-07-25T07:15:55.977Z,61.10
2018-07-25T07:18:24.543Z,62.60
2018-07-25T07:20:55.361Z,61.10
2018-07-25T07:23:24.000Z,60.50
2018-07-25T07:25:52.687Z,60.00
2018-07-25T07:28:23.029Z,60.50
2018-07-25T07:30:51.711Z,59.10
2018-07-25T07:33:26.649Z,57.50
2018-07-25T07:35:55.606Z,57.60
2018-07-25T07:38:27.228Z,57.30
2018-07-25T07:43:54.400Z,57.90
2018-07-25T07:46:23.062Z,57.60
2018-07-25T07:48:52.342Z,58.00
2018-07-25T07:51:25.072Z,58.30
2018-07-25T07:53:54.000Z,57.80
2018-07-25T07:56:22.880Z,58.40
2018-07-25T07:58:51.806Z,56.40
2018-07-25T08:01:21.488Z,56.30
2018-07-25T08:03:50.161Z,56.80
2018-07-25T08:06:19.099Z,56.50
2018-07-25T08:08:57.013Z,55.60
2018-07-25T08:11:25.978Z,56.20
2018-07-25T08:13:58.373Z,55.10
2018-07-25T08:16:58.334Z,55.70
2018-07-25T08:32:17.655Z,54.20
2018-07-25T08:34:46.330Z,53.00
2018-07-25T08:37:15.312Z,52.90
2018-07-25T08:39:46.075Z,52.70
2018-07-25T08:42:15.101Z,52.30
2018-07-25T08:44:44.614Z,51.40
2018-07-25T08:47:13.475Z,50.60
2018-07-25T08:49:42.805Z,50.70
2018-07-25T08:52:12.988Z,51.60
2018-07-25T08:54:43.901Z,50.80
2018-07-25T08:57:13.937Z,50.80
2018-07-25T09:00:01.957Z,49.30
2018-07-25T09:05:42.565Z,50.40
2018-07-25T09:08:11.618Z,50.90
2018-07-25T09:10:42.514Z,49.70
2018-07-25T09:13:31.086Z,49.40
2018-07-25T09:16:00.039Z,50.60
2018-07-25T09:18:33.024Z,50.70
2018-07-25T09:21:05.614Z,50.40
2018-07-25T09:23:43.299Z,49.10
2018-07-25T09:26:33.610Z,49.10
2018-07-25T09:29:06.162Z,49.60
2018-07-25T09:31:39.540Z,50.60
2018-07-25T09:34:10.327Z,50.90
2018-07-25T09:36:44.157Z,50.70
2018-07-25T09:39:19.958Z,51.10
2018-07-25T09:41:50.740Z,51.00
2018-07-25T09:44:21.172Z,50.90
2018-07-25T09:46:53.396Z,50.60
2018-07-25T09:49:22.997Z,50.50
2018-07-25T09:51:51.920Z,50.80
2018-07-25T09:54:22.027Z,50.50
2018-07-25T09:56:55.433Z,49.80
2018-07-25T09:59:24.196Z,49.40
2018-07-25T10:01:54.374Z,50.30
2018-07-25T10:04:23.307Z,49.90
2018-07-25T10:06:52.478Z,49.90
2018-07-25T10:09:23.168Z,48.10
2018-07-25T10:11:55.251Z,48.60
2018-07-25T10:14:26.823Z,48.50
2018-07-25T10:16:58.597Z,48.70
2018-07-25T10:19:27.651Z,48.10
2018-07-25T10:21:56.521Z,50.40
2018-07-25T10:24:26.876Z,48.20
2018-07-25T10:26:56.028Z,46.80
2018-07-25T10:29:26.628Z,47.20
2018-07-25T10:31:58.227Z,48.00
2018-07-25T10:34:26.966Z,48.30
2018-07-25T10:36:56.946Z,48.00
2018-07-25T10:39:28.918Z,47.40
2018-07-25T10:41:59.344Z,47.80
2018-07-25T10:44:30.354Z,48.30
2018-07-25T10:46:59.964Z,47.30
2018-07-25T10:49:28.970Z,46.90
2018-07-25T10:51:58.134Z,45.60
2018-07-25T10:54:26.802Z,46.00
2018-07-25T10:56:56.836Z,46.40
2018-07-25T10:59:29.960Z,46.30
2018-07-25T11:01:59.857Z,45.20
2018-07-25T11:04:30.001Z,43.70
2018-07-25T11:06:58.693Z,44.00
2018-07-25T11:09:27.910Z,44.50
2018-07-25T11:11:57.058Z,44.10
2018-07-25T11:14:26.570Z,44.40
2018-07-25T11:16:55.538Z,44.00
2018-07-25T11:19:28.755Z,44.30
2018-07-25T11:21:57.685Z,43.50
2018-07-25T11:24:29.691Z,43.00
2018-07-25T11:26:59.611Z,42.30
2018-07-25T11:29:29.725Z,41.90
2018-07-25T11:32:04.580Z,41.90
2018-07-25T11:34:33.886Z,42.60
2018-07-25T11:37:03.898Z,43.40
2018-07-25T11:39:32.545Z,42.50
2018-07-25T11:42:03.302Z,43.00
2018-07-25T11:44:32.472Z,43.20
2018-07-25T11:47:06.921Z,43.40
2018-07-25T11:49:40.503Z,43.50
2018-07-25T11:52:11.774Z,42.50
2018-07-25T11:54:48.614Z,41.60
2018-07-25T11:57:26.294Z,41.30
2018-07-25T11:59:56.380Z,41.60
2018-07-25T12:02:25.918Z,42.30
2018-07-25T12:04:55.360Z,43.00
2018-07-25T12:07:24.805Z,43.00
2018-07-25T12:09:56.269Z,43.40
2018-07-25T12:12:33.121Z,42.50
2018-07-25T12:15:04.687Z,42.00
2018-07-25T12:17:34.339Z,42.60
2018-07-25T12:20:05.609Z,42.70
2018-07-25T12:22:35.995Z,43.00
2018-07-25T12:25:06.992Z,41.80
2018-07-25T12:27:38.448Z,41.30
2018-07-25T12:30:09.902Z,40.80
2018-07-25T12:32:39.005Z,40.50
2018-07-25T12:35:09.180Z,39.30
2018-07-25T12:37:39.230Z,39.00
2018-07-25T12:40:09.112Z,37.50
2018-07-25T12:42:39.851Z,36.80
2018-07-25T12:45:09.405Z,37.40
2018-07-25T12:47:43.985Z,36.70
2018-07-25T12:50:13.592Z,36.70
2018-07-25T12:52:46.055Z,37.60
2018-07-25T12:55:19.251Z,37.80
2018-07-25T12:57:50.748Z,36.00
2018-07-25T13:00:20.949Z,34.90
2018-07-25T13:02:50.342Z,34.90
2018-07-25T13:05:24.669Z,35.00
2018-07-25T13:07:57.311Z,34.30
2018-07-25T13:10:28.138Z,34.80
2018-07-25T13:12:58.721Z,36.30
2018-07-25T13:15:31.749Z,36.20
2018-07-25T13:18:02.323Z,36.60
2018-07-25T13:20:32.757Z,36.20
2018-07-25T13:23:02.414Z,35.60
2018-07-25T13:25:32.061Z,35.30
